createdAt,value
2023-04-22T00:00:04.471Z,974.22
2023-04-22T00:01:04.469Z,974.23
2023-04-22T00:02:04.546Z,974.26
2023-04-22T00:03:04.560Z,974.24
2023-04-22T00:04:04.742Z,974.20
2023-04-22T00:05:04.431Z,974.23
2023-04-22T00:06:04.381Z,974.27
2023-04-22T00:07:04.405Z,974.27
2023-04-22T00:08:04.367Z,974.27
2023-04-22T00:09:04.340Z,974.23
2023-04-22T00:10:04.349Z,974.22
2023-04-22T00:11:04.320Z,974.21
2023-04-22T00:12:04.329Z,974.17
2023-04-22T00:13:04.306Z,974.18
2023-04-22T00:14:04.295Z,974.17
2023-04-22T00:15:04.289Z,974.16
2023-04-22T00:16:04.306Z,974.15
2023-04-22T00:17:04.251Z,974.18
2023-04-22T00:18:04.265Z,974.13
2023-04-22T00:19:04.229Z,974.17
2023-04-22T00:20:04.221Z,974.13
2023-04-22T00:21:04.186Z,974.11
2023-04-22T00:22:04.172Z,974.08
2023-04-22T00:23:04.189Z,974.11
2023-04-22T00:24:04.161Z,974.08
2023-04-22T00:25:04.150Z,974.02
2023-04-22T00:26:04.125Z,974.01
2023-04-22T00:27:04.137Z,974.09
2023-04-22T00:28:04.108Z,974.08
2023-04-22T00:29:04.113Z,974.14
2023-04-22T00:30:04.073Z,974.05
2023-04-22T00:31:04.083Z,974.07
2023-04-22T00:32:04.053Z,974.04
2023-04-22T00:33:04.066Z,974.17
2023-04-22T00:34:04.016Z,974.11
2023-04-22T00:35:04.026Z,974.09
2023-04-22T00:36:04.005Z,974.06
2023-04-22T00:37:03.991Z,974.12
2023-04-22T00:38:03.988Z,974.08
2023-04-22T00:39:04.003Z,974.02
2023-04-22T00:40:03.957Z,974.07
2023-04-22T00:41:03.929Z,974.06
2023-04-22T00:42:03.919Z,974.06
2023-04-22T00:43:03.928Z,974.06
2023-04-22T00:44:03.921Z,974.08
2023-04-22T00:45:03.881Z,974.07
2023-04-22T00:46:03.888Z,974.04
2023-04-22T00:47:03.959Z,974.08
2023-04-22T00:48:03.933Z,974.00
2023-04-22T00:49:03.874Z,974.02
2023-04-22T00:50:03.831Z,974.07
2023-04-22T00:51:03.809Z,974.04
2023-04-22T00:52:03.805Z,974.02
2023-04-22T00:53:03.797Z,973.99
2023-04-22T00:54:03.786Z,974.06
2023-04-22T00:55:03.765Z,974.00
2023-04-22T00:56:03.720Z,974.03
2023-04-22T00:57:03.723Z,974.08
2023-04-22T00:58:03.723Z,974.04
2023-04-22T00:59:03.717Z,974.05
2023-04-22T01:00:03.691Z,974.08
2023-04-22T01:01:03.722Z,974.04
2023-04-22T01:02:03.707Z,974.07
2023-04-22T01:03:03.854Z,974.15
2023-04-22T01:04:03.716Z,974.06
2023-04-22T01:05:03.658Z,974.10
2023-04-22T01:06:03.608Z,974.06
2023-04-22T01:07:03.600Z,974.06
2023-04-22T01:08:03.606Z,974.13
2023-04-22T01:09:03.592Z,974.15
2023-04-22T01:10:03.593Z,974.15
2023-04-22T01:11:03.548Z,974.20
2023-04-22T01:12:03.534Z,974.18
2023-04-22T01:13:03.560Z,974.18
2023-04-22T01:14:03.525Z,974.18
2023-04-22T01:15:04.909Z,974.17
2023-04-22T01:16:03.475Z,974.16
2023-04-22T01:17:03.625Z,974.12
2023-04-22T01:18:03.527Z,974.11
2023-04-22T01:19:03.436Z,974.17
2023-04-22T01:20:03.431Z,974.17
2023-04-22T01:21:03.423Z,974.16
2023-04-22T01:22:03.407Z,974.18
2023-04-22T01:23:03.433Z,974.19
2023-04-22T01:24:03.386Z,974.23
2023-04-22T01:25:03.377Z,974.16
2023-04-22T01:26:03.365Z,974.14
2023-04-22T01:27:03.359Z,974.14
2023-04-22T01:28:03.340Z,974.16
2023-04-22T01:29:03.334Z,974.16
2023-04-22T01:30:03.308Z,974.15
2023-04-22T01:31:03.283Z,974.14
2023-04-22T01:32:03.328Z,974.10
2023-04-22T01:33:03.304Z,974.16
2023-04-22T01:34:03.259Z,974.03
2023-04-22T01:35:03.266Z,974.08
2023-04-22T01:36:03.222Z,974.11
2023-04-22T01:37:03.232Z,974.11
2023-04-22T01:38:03.218Z,974.12
2023-04-22T01:39:03.186Z,974.14
2023-04-22T01:40:03.196Z,974.09
2023-04-22T01:41:03.191Z,974.13
2023-04-22T01:42:03.181Z,974.18
2023-04-22T01:43:03.175Z,974.14
2023-04-22T01:44:03.145Z,974.08
2023-04-22T01:45:03.152Z,974.13
2023-04-22T01:46:03.134Z,974.16
2023-04-22T01:47:03.093Z,974.19
2023-04-22T01:48:03.131Z,974.10
2023-04-22T01:49:03.069Z,974.14
2023-04-22T01:50:03.049Z,974.16
2023-04-22T01:51:03.040Z,974.15
2023-04-22T01:52:03.029Z,974.18
2023-04-22T01:53:03.058Z,974.21
2023-04-22T01:54:03.017Z,974.22
2023-04-22T01:55:02.997Z,974.08
2023-04-22T01:56:02.976Z,974.15
2023-04-22T01:57:03.003Z,974.13
2023-04-22T01:58:02.944Z,974.17
2023-04-22T01:59:02.953Z,974.18
2023-04-22T02:00:02.947Z,974.18
2023-04-22T02:01:02.966Z,974.19
2023-04-22T02:02:02.954Z,974.21
2023-04-22T02:03:02.964Z,974.14
2023-04-22T02:04:02.922Z,974.21
2023-04-22T02:05:02.926Z,974.21
2023-04-22T02:06:02.860Z,974.24
2023-04-22T02:07:02.828Z,974.21
2023-04-22T02:08:02.841Z,974.21
2023-04-22T02:09:02.830Z,974.22
2023-04-22T02:10:02.812Z,974.16
2023-04-22T02:11:02.819Z,974.14
2023-04-22T02:12:02.807Z,974.14
2023-04-22T02:13:02.762Z,974.12
2023-04-22T02:14:02.756Z,974.10
2023-04-22T02:15:02.746Z,974.17
2023-04-22T02:16:02.808Z,974.19
2023-04-22T02:17:02.719Z,974.15
2023-04-22T02:18:02.682Z,974.16
2023-04-22T02:19:02.699Z,974.17
2023-04-22T02:20:02.737Z,974.18
2023-04-22T02:21:02.652Z,974.16
2023-04-22T02:22:02.651Z,974.09
2023-04-22T02:23:02.648Z,974.11
2023-04-22T02:24:02.617Z,974.12
2023-04-22T02:25:02.604Z,974.06
2023-04-22T02:26:02.586Z,974.14
2023-04-22T02:27:02.582Z,974.11
2023-04-22T02:28:02.598Z,974.11
2023-04-22T02:29:02.555Z,974.12
2023-04-22T02:30:02.598Z,974.11
2023-04-22T02:31:02.585Z,974.13
2023-04-22T02:32:02.498Z,974.13
2023-04-22T02:33:02.552Z,974.18
2023-04-22T02:34:02.499Z,974.13
2023-04-22T02:35:02.473Z,974.13
2023-04-22T02:36:02.479Z,974.17
2023-04-22T02:37:02.432Z,974.24
2023-04-22T02:38:02.464Z,974.29
2023-04-22T02:39:02.446Z,974.21
2023-04-22T02:40:02.403Z,974.26
2023-04-22T02:41:02.388Z,974.27
2023-04-22T02:42:09.382Z,974.26
2023-04-22T02:43:09.377Z,974.30
2023-04-22T02:44:02.359Z,974.28
2023-04-22T02:45:09.333Z,974.26
2023-04-22T02:46:02.322Z,974.32
2023-04-22T02:47:02.355Z,974.29
2023-04-22T02:48:09.346Z,974.32
2023-04-22T02:49:09.307Z,974.32
2023-04-22T02:50:02.269Z,974.28
2023-04-22T02:51:02.266Z,974.34
2023-04-22T02:52:02.248Z,974.36
2023-04-22T02:53:02.264Z,974.31
2023-04-22T02:54:02.244Z,974.32
2023-04-22T02:55:02.214Z,974.33
2023-04-22T02:56:02.210Z,974.33
2023-04-22T02:57:02.180Z,974.30
2023-04-22T02:58:02.196Z,974.30
2023-04-22T02:59:02.183Z,974.32
2023-04-22T03:00:02.188Z,974.30
2023-04-22T03:01:02.209Z,974.29
2023-04-22T03:02:05.134Z,974.30
2023-04-22T03:03:02.247Z,974.32
2023-04-22T03:04:02.357Z,974.28
2023-04-22T03:05:02.117Z,974.29
2023-04-22T03:06:02.089Z,974.32
2023-04-22T03:07:02.060Z,974.26
2023-04-22T03:08:02.055Z,974.28
2023-04-22T03:09:02.045Z,974.31
2023-04-22T03:10:02.019Z,974.36
2023-04-22T03:11:01.997Z,974.36
2023-04-22T03:12:01.998Z,974.30
2023-04-22T03:13:01.975Z,974.40
2023-04-22T03:14:01.978Z,974.37
2023-04-22T03:15:01.973Z,974.38
2023-04-22T03:16:02.024Z,974.42
2023-04-22T03:17:02.367Z,974.34
2023-04-22T03:18:01.980Z,974.43
2023-04-22T03:19:01.929Z,974.43
2023-04-22T03:20:01.903Z,974.40
2023-04-22T03:21:01.900Z,974.38
2023-04-22T03:22:01.882Z,974.34
2023-04-22T03:23:01.899Z,974.38
2023-04-22T03:24:01.877Z,974.36
2023-04-22T03:25:01.837Z,974.30
2023-04-22T03:26:01.823Z,974.37
2023-04-22T03:27:01.816Z,974.35
2023-04-22T03:28:01.791Z,974.37
2023-04-22T03:29:01.779Z,974.38
2023-04-22T03:30:01.787Z,974.33
2023-04-22T03:31:01.760Z,974.35
2023-04-22T03:32:01.820Z,974.35
2023-04-22T03:33:01.789Z,974.42
2023-04-22T03:34:01.752Z,974.42
2023-04-22T03:35:01.730Z,974.39
2023-04-22T03:36:01.700Z,974.39
2023-04-22T03:37:01.685Z,974.38
2023-04-22T03:38:01.666Z,974.37
2023-04-22T03:39:01.698Z,974.34
2023-04-22T03:40:01.673Z,974.41
2023-04-22T03:41:01.652Z,974.36
2023-04-22T03:42:01.626Z,974.40
2023-04-22T03:43:01.619Z,974.40
2023-04-22T03:44:02.018Z,974.39
2023-04-22T03:45:01.601Z,974.34
2023-04-22T03:46:01.616Z,974.30
2023-04-22T03:47:01.556Z,974.25
2023-04-22T03:48:01.630Z,974.34
2023-04-22T03:49:01.521Z,974.32
2023-04-22T04:02:53.048Z,974.38
2023-04-22T04:03:53.192Z,974.28
2023-04-22T04:04:53.096Z,974.32
2023-04-22T04:05:53.025Z,974.32
2023-04-22T04:06:52.826Z,974.33
2023-04-22T04:07:52.821Z,974.31
2023-04-22T04:08:52.794Z,974.36
2023-04-22T04:09:52.803Z,974.35
2023-04-22T04:10:52.775Z,974.32
2023-04-22T04:11:52.761Z,974.35
2023-04-22T04:12:52.763Z,974.31
2023-04-22T04:13:52.765Z,974.32
2023-04-22T04:14:52.725Z,974.26
2023-04-22T04:15:52.804Z,974.31
2023-04-22T04:16:52.700Z,974.28
2023-04-22T04:17:52.801Z,974.27
2023-04-22T04:18:52.665Z,974.26
2023-04-22T04:19:52.669Z,974.27
2023-04-22T04:20:52.652Z,974.31
2023-04-22T04:21:52.645Z,974.29
2023-04-22T04:22:52.628Z,974.26
2023-04-22T04:23:52.639Z,974.27
2023-04-22T04:24:52.594Z,974.26
2023-04-22T04:25:52.598Z,974.28
2023-04-22T04:26:52.544Z,974.28
2023-04-22T04:27:52.554Z,974.23
2023-04-22T04:28:52.557Z,974.28
2023-04-22T04:29:52.565Z,974.31
2023-04-22T04:30:52.543Z,974.26
2023-04-22T04:31:52.517Z,974.28
2023-04-22T04:32:52.500Z,974.21
2023-04-22T04:33:52.474Z,974.25
2023-04-22T04:34:52.469Z,974.32
2023-04-22T04:35:52.449Z,974.27
2023-04-22T04:36:52.417Z,974.24
2023-04-22T04:37:52.403Z,974.26
2023-04-22T04:38:55.056Z,974.25
2023-04-22T04:39:52.390Z,974.25
2023-04-22T04:40:52.355Z,974.21
2023-04-22T04:41:52.365Z,974.30
2023-04-22T04:42:52.326Z,974.21
2023-04-22T04:43:52.338Z,974.27
2023-04-22T04:44:52.337Z,974.25
2023-04-22T04:45:52.292Z,974.24
2023-04-22T04:46:52.291Z,974.27
2023-04-22T04:47:52.366Z,974.31
2023-04-22T04:48:52.270Z,974.27
2023-04-22T04:49:52.253Z,974.28
2023-04-22T04:50:52.233Z,974.31
2023-04-22T04:51:52.230Z,974.24
2023-04-22T04:52:52.979Z,974.32
2023-04-22T04:53:52.214Z,974.36
2023-04-22T04:54:52.185Z,974.40
2023-04-22T04:55:52.207Z,974.36
2023-04-22T04:56:52.157Z,974.34
2023-04-22T04:57:52.146Z,974.34
2023-04-22T04:58:52.126Z,974.30
2023-04-22T04:59:52.152Z,974.30
2023-04-22T05:00:52.096Z,974.33
2023-04-22T05:01:52.112Z,974.35
2023-04-22T05:02:52.231Z,974.36
2023-04-22T05:03:52.256Z,974.35
2023-04-22T05:04:52.119Z,974.38
2023-04-22T05:05:52.054Z,974.34
2023-04-22T05:06:52.122Z,974.38
2023-04-22T05:07:52.002Z,974.38
2023-04-22T05:08:52.018Z,974.36
2023-04-22T05:09:51.969Z,974.38
2023-04-22T05:10:51.999Z,974.39
2023-04-22T05:11:51.946Z,974.40
2023-04-22T05:12:51.938Z,974.41
2023-04-22T05:13:51.963Z,974.42
2023-04-22T05:14:51.971Z,974.37
2023-04-22T05:15:51.906Z,974.43
2023-04-22T05:16:52.046Z,974.44
2023-04-22T05:17:51.900Z,974.45
2023-04-22T05:18:51.870Z,974.47
2023-04-22T05:19:51.852Z,974.44
2023-04-22T05:20:51.840Z,974.43
2023-04-22T05:21:51.832Z,974.41
2023-04-22T05:22:51.801Z,974.48
2023-04-22T05:23:51.799Z,974.48
2023-04-22T05:24:51.779Z,974.48
2023-04-22T05:25:53.395Z,974.48
2023-04-22T05:26:51.770Z,974.50
2023-04-22T05:27:51.740Z,974.40
2023-04-22T05:28:51.749Z,974.45
2023-04-22T05:29:51.728Z,974.50
2023-04-22T05:30:51.721Z,974.44
2023-04-22T05:31:51.738Z,974.43
2023-04-22T05:32:51.732Z,974.45
2023-04-22T05:33:51.679Z,974.42
2023-04-22T05:34:51.680Z,974.41
2023-04-22T05:35:51.646Z,974.45
2023-04-22T05:36:51.642Z,974.45
2023-04-22T05:37:51.611Z,974.45
2023-04-22T05:38:51.617Z,974.48
2023-04-22T05:39:51.609Z,974.49
2023-04-22T05:40:51.612Z,974.48
2023-04-22T05:41:51.559Z,974.49
2023-04-22T05:42:51.562Z,974.48
2023-04-22T05:43:51.545Z,974.50
2023-04-22T05:44:51.524Z,974.57
2023-04-22T05:45:51.569Z,974.54
2023-04-22T05:46:51.506Z,974.55
2023-04-22T05:47:51.505Z,974.52
2023-04-22T05:48:51.510Z,974.53
2023-04-22T05:49:51.470Z,974.46
2023-04-22T05:50:51.464Z,974.50
2023-04-22T05:51:51.421Z,974.52
2023-04-22T05:52:51.417Z,974.49
2023-04-22T05:53:51.402Z,974.52
2023-04-22T05:54:51.405Z,974.48
2023-04-22T05:55:51.401Z,974.44
2023-04-22T05:56:51.360Z,974.52
2023-04-22T05:57:51.365Z,974.46
2023-04-22T05:58:51.356Z,974.47
2023-04-22T05:59:51.325Z,974.51
2023-04-22T06:00:51.331Z,974.52
2023-04-22T06:01:51.317Z,974.56
2023-04-22T06:02:51.397Z,974.48
2023-04-22T06:03:51.442Z,974.49
2023-04-22T06:04:51.493Z,974.53
2023-04-22T06:05:51.340Z,974.55
2023-04-22T06:06:51.234Z,974.53
2023-04-22T06:07:51.236Z,974.58
2023-04-22T06:08:51.230Z,974.56
2023-04-22T06:09:59.419Z,974.56
2023-04-22T06:10:52.200Z,974.62
2023-04-22T06:11:51.164Z,974.63
2023-04-22T06:12:51.173Z,974.65
2023-04-22T06:13:51.153Z,974.63
2023-04-22T06:14:51.140Z,974.62
2023-04-22T06:15:51.141Z,974.63
2023-04-22T06:16:51.096Z,974.60
2023-04-22T06:17:51.101Z,974.62
2023-04-22T06:18:51.076Z,974.58
2023-04-22T06:19:51.050Z,974.55
2023-04-22T06:20:51.054Z,974.56
2023-04-22T06:21:51.024Z,974.58
2023-04-22T06:22:51.027Z,974.57
2023-04-22T06:23:51.009Z,974.61
2023-04-22T06:24:51.020Z,974.58
2023-04-22T06:25:50.983Z,974.57
2023-04-22T06:26:50.961Z,974.61
2023-04-22T06:27:50.950Z,974.58
2023-04-22T06:28:50.950Z,974.52
2023-04-22T06:29:50.934Z,974.54
2023-04-22T06:30:51.017Z,974.55
2023-04-22T06:31:50.944Z,974.48
2023-04-22T06:32:50.916Z,974.54
2023-04-22T06:33:50.876Z,974.49
2023-04-22T06:34:50.877Z,974.46
2023-04-22T06:35:50.858Z,974.53
2023-04-22T06:36:50.878Z,974.48
2023-04-22T06:37:50.822Z,974.52
2023-04-22T06:38:50.811Z,974.55
2023-04-22T06:39:50.840Z,974.48
2023-04-22T06:40:50.794Z,974.50
2023-04-22T06:41:50.783Z,974.52
2023-04-22T06:42:50.754Z,974.56
2023-04-22T06:43:50.738Z,974.54
2023-04-22T06:44:50.762Z,974.58
2023-04-22T06:45:50.715Z,974.54
2023-04-22T06:46:50.785Z,974.55
2023-04-22T06:47:50.714Z,974.48
2023-04-22T06:48:50.701Z,974.55
2023-04-22T06:49:50.662Z,974.51
2023-04-22T06:50:50.670Z,974.55
2023-04-22T06:51:50.672Z,974.49
2023-04-22T06:52:50.626Z,974.58
2023-04-22T06:53:50.609Z,974.52
2023-04-22T06:54:50.615Z,974.59
2023-04-22T06:55:50.595Z,974.53
2023-04-22T06:56:50.612Z,974.58
2023-04-22T06:57:50.565Z,974.52
2023-04-22T06:58:50.568Z,974.51
2023-04-22T06:59:50.533Z,974.49
2023-04-22T07:00:50.538Z,974.48
2023-04-22T07:01:50.597Z,974.56
2023-04-22T07:02:50.616Z,974.52
2023-04-22T07:03:50.530Z,974.44
2023-04-22T07:04:50.480Z,974.47
2023-04-22T07:05:50.461Z,974.42
2023-04-22T07:06:50.489Z,974.37
2023-04-22T07:07:50.442Z,974.42
2023-04-22T07:08:50.448Z,974.35
2023-04-22T07:09:50.398Z,974.36
2023-04-22T07:10:50.392Z,974.39
2023-04-22T07:11:50.392Z,974.28
2023-04-22T07:12:50.408Z,974.30
2023-04-22T07:13:50.351Z,974.32
2023-04-22T07:14:50.562Z,974.28
2023-04-22T07:15:50.317Z,974.24
2023-04-22T07:16:50.438Z,974.29
2023-04-22T07:17:50.363Z,974.26
2023-04-22T07:18:50.301Z,974.29
2023-04-22T07:19:50.271Z,974.21
2023-04-22T07:20:50.273Z,974.18
2023-04-22T07:21:50.272Z,974.24
2023-04-22T07:22:50.271Z,974.20
2023-04-22T07:23:50.232Z,974.16
2023-04-22T07:24:50.201Z,974.21
2023-04-22T07:25:50.236Z,974.15
2023-04-22T07:26:50.206Z,974.16
2023-04-22T07:27:50.173Z,974.19
2023-04-22T07:28:50.188Z,974.20
2023-04-22T07:29:50.168Z,974.17
2023-04-22T07:30:50.123Z,974.18
2023-04-22T07:31:50.159Z,974.22
2023-04-22T07:32:50.149Z,974.17
2023-04-22T07:33:50.079Z,974.21
2023-04-22T07:34:50.074Z,974.18
2023-04-22T07:35:50.053Z,974.28
2023-04-22T07:36:50.055Z,974.26
2023-04-22T07:37:50.043Z,974.16
2023-04-22T07:38:50.029Z,974.24
2023-04-22T07:39:49.998Z,974.20
2023-04-22T07:40:49.988Z,974.16
2023-04-22T07:41:49.981Z,974.16
2023-04-22T07:42:49.994Z,974.22
2023-04-22T07:43:49.955Z,974.20
2023-04-22T07:44:49.970Z,974.21
2023-04-22T07:45:49.955Z,974.21
2023-04-22T07:46:49.916Z,974.13
2023-04-22T07:47:49.934Z,974.20
2023-04-22T07:48:49.889Z,974.22
2023-04-22T07:49:49.893Z,974.15
2023-04-22T07:50:49.894Z,974.13
2023-04-22T07:51:49.855Z,974.12
2023-04-22T07:52:49.860Z,974.11
2023-04-22T07:53:49.819Z,974.09
2023-04-22T07:54:49.809Z,974.12
2023-04-22T07:55:49.843Z,974.11
2023-04-22T07:56:49.794Z,974.11
2023-04-22T07:57:49.791Z,974.10
2023-04-22T07:58:49.753Z,974.13
2023-04-22T07:59:49.752Z,974.13
2023-04-22T08:00:49.752Z,974.11
2023-04-22T08:01:49.771Z,974.07
2023-04-22T08:02:49.804Z,974.13
2023-04-22T08:03:49.913Z,974.09
2023-04-22T08:04:49.811Z,974.08
2023-04-22T08:05:49.674Z,974.07
2023-04-22T08:06:49.660Z,974.11
2023-04-22T08:07:49.655Z,974.09
2023-04-22T08:08:49.636Z,974.11
2023-04-22T08:09:49.611Z,974.11
2023-04-22T08:10:49.602Z,974.05
2023-04-22T08:11:49.589Z,974.05
2023-04-22T08:12:49.597Z,974.07
2023-04-22T08:13:49.544Z,974.09
2023-04-22T08:14:49.544Z,974.17
2023-04-22T08:15:49.573Z,974.13
2023-04-22T08:16:49.524Z,974.13
2023-04-22T08:17:49.538Z,974.14
2023-04-22T08:18:49.489Z,974.07
2023-04-22T08:19:49.510Z,974.12
2023-04-22T08:20:49.538Z,974.16
2023-04-22T08:21:49.447Z,974.10
2023-04-22T08:22:49.459Z,974.09
2023-04-22T08:23:49.420Z,974.06
2023-04-22T08:24:49.416Z,974.07
2023-04-22T08:25:49.418Z,974.04
2023-04-22T08:26:49.400Z,974.02
2023-04-22T08:27:49.391Z,974.04
2023-04-22T08:28:49.381Z,974.07
2023-04-22T08:29:49.372Z,974.03
2023-04-22T08:30:49.343Z,974.09
2023-04-22T08:31:49.344Z,974.06
2023-04-22T08:32:49.406Z,974.05
2023-04-22T08:33:49.298Z,974.04
2023-04-22T08:34:51.888Z,974.06
2023-04-22T08:35:49.265Z,974.11
2023-04-22T08:36:49.266Z,974.07
2023-04-22T08:37:49.267Z,974.06
2023-04-22T08:38:50.189Z,974.00
2023-04-22T08:39:49.214Z,974.03
2023-04-22T08:40:49.205Z,973.98
2023-04-22T08:41:49.189Z,974.00
2023-04-22T08:42:49.197Z,974.05
2023-04-22T08:43:49.196Z,974.04
2023-04-22T08:44:49.144Z,974.05
2023-04-22T08:45:49.128Z,974.13
2023-04-22T08:46:49.216Z,974.10
2023-04-22T08:47:49.131Z,974.03
2023-04-22T08:48:49.116Z,974.09
2023-04-22T08:49:49.081Z,974.10
2023-04-22T08:50:49.135Z,974.12
2023-04-22T08:51:49.056Z,974.11
2023-04-22T08:52:49.087Z,974.05
2023-04-22T08:53:49.017Z,974.10
2023-04-22T08:54:49.026Z,973.98
2023-04-22T08:55:49.017Z,973.99
2023-04-22T08:56:49.001Z,973.94
2023-04-22T08:57:48.983Z,973.98
2023-04-22T08:58:48.988Z,973.99
2023-04-22T08:59:48.961Z,973.96
2023-04-22T09:00:48.932Z,973.92
2023-04-22T09:01:48.994Z,973.90
2023-04-22T09:02:48.996Z,973.91
2023-04-22T09:03:48.972Z,973.85
2023-04-22T09:04:48.899Z,973.90
2023-04-22T09:05:48.876Z,973.88
2023-04-22T09:06:48.864Z,973.88
2023-04-22T09:07:48.871Z,973.88
2023-04-22T09:08:48.847Z,973.81
2023-04-22T09:09:48.833Z,973.82
2023-04-22T09:10:48.803Z,973.78
2023-04-22T09:11:48.797Z,973.80
2023-04-22T09:12:48.809Z,973.79
2023-04-22T09:13:48.776Z,973.68
2023-04-22T09:14:48.767Z,973.68
2023-04-22T09:15:48.740Z,973.72
2023-04-22T09:16:48.814Z,973.65
2023-04-22T09:17:48.787Z,973.56
2023-04-22T09:18:48.716Z,973.62
2023-04-22T09:19:48.702Z,973.68
2023-04-22T09:20:48.688Z,973.64
2023-04-22T09:21:50.354Z,973.66
2023-04-22T09:22:48.653Z,973.62
2023-04-22T09:23:48.663Z,973.62
2023-04-22T09:24:48.635Z,973.57
2023-04-22T09:25:48.602Z,973.64
2023-04-22T09:26:48.610Z,973.61
2023-04-22T09:27:49.643Z,973.56
2023-04-22T09:28:48.593Z,973.62
2023-04-22T09:29:48.567Z,973.54
2023-04-22T09:30:48.586Z,973.54
2023-04-22T09:31:48.593Z,973.51
2023-04-22T09:32:48.547Z,973.57
2023-04-22T09:33:50.166Z,973.59
2023-04-22T09:34:48.508Z,973.59
2023-04-22T09:35:48.479Z,973.58
2023-04-22T09:36:48.477Z,973.52
2023-04-22T09:37:49.550Z,973.55
2023-04-22T09:38:48.488Z,973.53
2023-04-22T09:39:49.679Z,973.54
2023-04-22T09:40:48.419Z,973.46
2023-04-22T09:41:48.412Z,973.52
2023-04-22T09:42:48.386Z,973.47
2023-04-22T09:43:48.387Z,973.48
2023-04-22T09:44:48.353Z,973.48
2023-04-22T09:45:48.379Z,973.51
2023-04-22T09:46:48.349Z,973.54
2023-04-22T10:02:45.259Z,973.38
2023-04-22T10:03:45.203Z,973.35
2023-04-22T10:04:45.160Z,973.33
2023-04-22T10:05:45.145Z,973.44
2023-04-22T10:06:45.135Z,973.32
2023-04-22T10:07:45.151Z,973.31
2023-04-22T10:08:45.106Z,973.39
2023-04-22T10:09:45.096Z,973.22
2023-04-22T10:10:45.117Z,973.28
2023-04-22T10:11:45.068Z,973.27
2023-04-22T10:12:45.042Z,973.25
2023-04-22T10:13:45.062Z,973.22
2023-04-22T10:14:53.562Z,973.20
2023-04-22T10:15:45.021Z,973.31
2023-04-22T10:16:45.031Z,973.31
2023-04-22T10:17:45.008Z,973.30
2023-04-22T10:18:44.985Z,973.22
2023-04-22T10:19:44.979Z,973.29
2023-04-22T10:20:44.973Z,973.26
2023-04-22T10:21:44.935Z,973.18
2023-04-22T10:22:44.939Z,973.16
2023-04-22T10:23:44.925Z,973.19
2023-04-22T10:24:44.899Z,973.23
2023-04-22T10:25:44.899Z,973.21
2023-04-22T10:26:44.913Z,973.24
2023-04-22T10:27:44.880Z,973.26
2023-04-22T10:28:44.861Z,973.13
2023-04-22T10:29:44.847Z,973.20
2023-04-22T10:30:44.899Z,973.25
2023-04-22T10:31:44.828Z,973.20
2023-04-22T10:32:44.873Z,973.21
2023-04-22T10:33:44.811Z,973.26
2023-04-22T10:34:44.754Z,973.20
2023-04-22T10:35:44.769Z,973.16
2023-04-22T10:36:44.754Z,973.11
2023-04-22T10:37:44.744Z,973.17
2023-04-22T10:38:44.740Z,973.15
2023-04-22T10:39:44.702Z,973.08
2023-04-22T10:40:44.716Z,973.11
2023-04-22T10:41:44.682Z,973.05
2023-04-22T10:42:44.667Z,973.09
2023-04-22T10:43:44.689Z,973.09
2023-04-22T10:44:44.652Z,973.03
2023-04-22T10:45:44.647Z,973.10
2023-04-22T10:46:44.672Z,972.96
2023-04-22T10:47:44.652Z,972.96
2023-04-22T10:48:44.578Z,972.97
2023-04-22T10:49:44.590Z,972.93
2023-04-22T10:50:44.573Z,972.92
2023-04-22T10:51:44.540Z,972.91
2023-04-22T10:52:44.532Z,972.85
2023-04-22T10:53:44.540Z,972.83
2023-04-22T10:54:44.524Z,972.82
2023-04-22T10:55:44.506Z,972.80
2023-04-22T10:56:51.915Z,972.77
2023-04-22T10:57:45.473Z,972.81
2023-04-22T10:58:44.445Z,972.79
2023-04-22T10:59:44.458Z,972.80
2023-04-22T11:00:53.299Z,972.79
2023-04-22T11:01:45.449Z,972.78
2023-04-22T11:02:44.493Z,972.81
2023-04-22T11:03:44.458Z,972.81
2023-04-22T11:04:44.391Z,972.91
2023-04-22T11:05:44.366Z,972.86
2023-04-22T11:06:44.347Z,972.82
2023-04-22T11:07:44.341Z,972.83
2023-04-22T11:08:44.318Z,972.76
2023-04-22T11:09:44.344Z,972.76
2023-04-22T11:10:44.812Z,972.75
2023-04-22T11:11:44.286Z,972.79
2023-04-22T11:12:44.268Z,972.91
2023-04-22T11:13:44.263Z,972.80
2023-04-22T11:14:44.290Z,972.75
2023-04-22T11:15:44.238Z,972.85
2023-04-22T11:16:44.326Z,972.86
2023-04-22T11:17:44.282Z,972.82
2023-04-22T11:18:44.182Z,972.73
2023-04-22T11:19:44.190Z,972.76
2023-04-22T11:20:44.187Z,972.83
2023-04-22T11:21:44.141Z,972.74
2023-04-22T11:22:44.211Z,972.83
2023-04-22T11:23:44.100Z,972.70
2023-04-22T11:24:44.125Z,972.66
2023-04-22T11:25:44.089Z,972.73
2023-04-22T11:26:44.086Z,972.72
2023-04-22T11:27:44.087Z,972.75
2023-04-22T11:28:44.059Z,972.71
2023-04-22T11:29:44.056Z,972.71
2023-04-22T11:30:44.056Z,972.70
2023-04-22T11:31:44.060Z,972.63
2023-04-22T11:32:44.028Z,972.64
2023-04-22T11:33:43.990Z,972.67
2023-04-22T11:34:43.985Z,972.71
2023-04-22T11:35:43.990Z,972.67
2023-04-22T11:36:43.971Z,972.61
2023-04-22T11:37:43.941Z,972.58
2023-04-22T11:38:43.924Z,972.59
2023-04-22T11:40:01.632Z,972.64
2023-04-22T11:40:46.556Z,972.58
2023-04-22T11:41:43.878Z,972.72
2023-04-22T11:42:43.872Z,972.69
2023-04-22T11:43:43.870Z,972.60
2023-04-22T11:44:43.849Z,972.67
2023-04-22T11:45:43.887Z,972.63
2023-04-22T11:46:43.848Z,972.65
2023-04-22T11:47:43.848Z,972.57
2023-04-22T11:48:43.807Z,972.55
2023-04-22T11:49:43.781Z,972.52
2023-04-22T11:50:43.817Z,972.55
2023-04-22T11:51:43.766Z,972.56
2023-04-22T11:52:43.742Z,972.56
2023-04-22T11:53:43.731Z,972.45
2023-04-22T11:54:43.732Z,972.51
2023-04-22T11:55:43.716Z,972.42
2023-04-22T11:56:43.730Z,972.41
2023-04-22T11:57:43.667Z,972.52
2023-04-22T11:58:43.673Z,972.47
2023-04-22T11:59:43.666Z,972.42
2023-04-22T12:00:43.664Z,972.44
2023-04-22T12:01:43.615Z,972.43
2023-04-22T12:02:43.701Z,972.48
2023-04-22T12:03:43.768Z,972.46
2023-04-22T12:04:43.583Z,972.45
2023-04-22T12:05:43.591Z,972.39
2023-04-22T12:06:43.558Z,972.40
2023-04-22T12:07:43.542Z,972.42
2023-04-22T12:08:43.534Z,972.44
2023-04-22T12:09:43.516Z,972.39
2023-04-22T12:10:43.547Z,972.38
2023-04-22T12:11:43.530Z,972.35
2023-04-22T12:12:43.490Z,972.36
2023-04-22T12:13:43.492Z,972.47
2023-04-22T12:14:43.469Z,972.33
2023-04-22T12:15:43.495Z,972.29
2023-04-22T12:16:43.533Z,972.20
2023-04-22T12:17:43.414Z,972.23
2023-04-22T12:18:43.424Z,972.26
2023-04-22T12:19:43.408Z,972.35
2023-04-22T12:20:43.368Z,972.31
2023-04-22T12:21:43.366Z,972.30
2023-04-22T12:22:43.356Z,972.26
2023-04-22T12:23:43.345Z,972.19
2023-04-22T12:24:43.322Z,972.21
2023-04-22T12:25:43.320Z,972.21
2023-04-22T12:26:43.307Z,972.15
2023-04-22T12:27:43.277Z,972.15
2023-04-22T12:28:43.288Z,972.12
2023-04-22T12:29:43.269Z,972.16
2023-04-22T12:30:43.238Z,972.20
2023-04-22T12:31:43.237Z,972.17
2023-04-22T12:32:43.224Z,972.21
2023-04-22T12:33:43.243Z,972.15
2023-04-22T12:34:43.197Z,972.07
2023-04-22T12:35:43.182Z,972.12
2023-04-22T12:36:43.185Z,972.15
2023-04-22T12:37:43.180Z,972.10
2023-04-22T12:38:43.161Z,972.07
2023-04-22T12:39:43.140Z,972.01
2023-04-22T12:40:43.138Z,972.09
2023-04-22T12:41:43.111Z,972.15
2023-04-22T12:42:43.112Z,972.13
2023-04-22T12:43:43.095Z,972.09
2023-04-22T12:44:43.063Z,972.11
2023-04-22T12:45:43.056Z,972.04
2023-04-22T12:46:43.075Z,972.02
2023-04-22T12:47:43.062Z,972.03
2023-04-22T12:48:43.071Z,972.06
2023-04-22T12:49:44.918Z,972.01
2023-04-22T12:50:43.003Z,972.04
2023-04-22T12:51:42.985Z,972.09
2023-04-22T12:52:42.980Z,972.10
2023-04-22T12:53:42.979Z,972.06
2023-04-22T12:54:43.086Z,971.96
2023-04-22T12:55:45.384Z,972.05